sensor_id;sensor_type;location;lat;lon;timestamp;P1;durP1;ratioP1;P2;durP2;ratioP2
3543;SDS011;1786;52.870;9.578;2022-07-23T00:00:14;6.27;;;2.67;;
3543;SDS011;1786;52.870;9.578;2022-07-23T00:02:41;12.03;;;3.20;;
3543;SDS011;1786;52.870;9.578;2022-07-23T00:05:08;14.70;;;3.17;;
3543;SDS011;1786;52.870;9.578;2022-07-23T00:07:36;8.07;;;2.90;;
3543;SDS011;1786;52.870;9.578;2022-07-23T00:10:04;5.70;;;2.80;;
3543;SDS011;1786;52.870;9.578;2022-07-23T00:12:31;4.23;;;2.30;;
3543;SDS011;1786;52.870;9.578;2022-07-23T00:14:58;5.70;;;2.93;;
3543;SDS011;1786;52.870;9.578;2022-07-23T00:17:25;3.27;;;2.43;;
3543;SDS011;1786;52.870;9.578;2022-07-23T00:19:52;4.70;;;2.90;;
3543;SDS011;1786;52.870;9.578;2022-07-23T00:22:19;5.90;;;2.83;;
3543;SDS011;1786;52.870;9.578;2022-07-23T00:24:47;7.27;;;4.27;;
3543;SDS011;1786;52.870;9.578;2022-07-23T00:27:34;4.20;;;2.23;;
3543;SDS011;1786;52.870;9.578;2022-07-23T00:30:00;10.00;;;2.90;;
3543;SDS011;1786;52.870;9.578;2022-07-23T00:32:27;6.43;;;2.73;;
3543;SDS011;1786;52.870;9.578;2022-07-23T00:35:14;2.67;;;2.30;;
3543;SDS011;1786;52.870;9.578;2022-07-23T00:37:42;6.97;;;2.70;;
3543;SDS011;1786;52.870;9.578;2022-07-23T00:40:09;5.83;;;3.43;;
3543;SDS011;1786;52.870;9.578;2022-07-23T00:42:37;3.90;;;2.67;;
3543;SDS011;1786;52.870;9.578;2022-07-23T00:45:04;7.33;;;2.53;;
3543;SDS011;1786;52.870;9.578;2022-07-23T00:47:31;4.40;;;3.03;;
3543;SDS011;1786;52.870;9.578;2022-07-23T00:49:58;7.80;;;2.30;;
3543;SDS011;1786;52.870;9.578;2022-07-23T00:52:25;9.50;;;2.47;;
3543;SDS011;1786;52.870;9.578;2022-07-23T00:54:52;3.23;;;2.90;;
3543;SDS011;1786;52.870;9.578;2022-07-23T00:57:19;2.93;;;2.10;;
3543;SDS011;1786;52.870;9.578;2022-07-23T00:59:52;4.60;;;2.90;;
3543;SDS011;1786;52.870;9.578;2022-07-23T01:02:20;3.47;;;2.20;;
3543;SDS011;1786;52.870;9.578;2022-07-23T01:04:47;2.70;;;2.50;;
3543;SDS011;1786;52.870;9.578;2022-07-23T01:07:13;7.50;;;3.10;;
3543;SDS011;1786;52.870;9.578;2022-07-23T01:09:40;6.73;;;3.60;;
3543;SDS011;1786;52.870;9.578;2022-07-23T01:12:08;7.70;;;3.10;;
3543;SDS011;1786;52.870;9.578;2022-07-23T01:14:35;3.00;;;2.80;;
3543;SDS011;1786;52.870;9.578;2022-07-23T01:17:02;4.40;;;2.70;;
3543;SDS011;1786;52.870;9.578;2022-07-23T01:19:29;8.03;;;2.80;;
3543;SDS011;1786;52.870;9.578;2022-07-23T01:21:57;8.23;;;3.30;;
3543;SDS011;1786;52.870;9.578;2022-07-23T01:24:27;9.37;;;3.87;;
3543;SDS011;1786;52.870;9.578;2022-07-23T01:27:00;5.10;;;3.57;;
3543;SDS011;1786;52.870;9.578;2022-07-23T01:29:26;4.73;;;3.10;;
3543;SDS011;1786;52.870;9.578;2022-07-23T01:31:54;3.50;;;3.27;;
3543;SDS011;1786;52.870;9.578;2022-07-23T01:34:21;5.67;;;3.50;;
3543;SDS011;1786;52.870;9.578;2022-07-23T01:36:48;5.03;;;3.10;;
3543;SDS011;1786;52.870;9.578;2022-07-23T01:39:16;3.57;;;3.13;;
3543;SDS011;1786;52.870;9.578;2022-07-23T01:41:43;4.20;;;3.47;;
3543;SDS011;1786;52.870;9.578;2022-07-23T01:44:16;3.50;;;3.20;;
3543;SDS011;1786;52.870;9.578;2022-07-23T01:46:44;7.00;;;3.23;;
3543;SDS011;1786;52.870;9.578;2022-07-23T01:49:11;8.10;;;3.50;;
3543;SDS011;1786;52.870;9.578;2022-07-23T01:51:56;3.73;;;3.20;;
3543;SDS011;1786;52.870;9.578;2022-07-23T01:54:37;4.13;;;3.03;;
3543;SDS011;1786;52.870;9.578;2022-07-23T01:57:07;4.97;;;2.97;;
3543;SDS011;1786;52.870;9.578;2022-07-23T01:59:36;4.67;;;2.77;;
3543;SDS011;1786;52.870;9.578;2022-07-23T02:02:04;4.60;;;3.00;;
3543;SDS011;1786;52.870;9.578;2022-07-23T02:04:32;3.43;;;3.13;;
3543;SDS011;1786;52.870;9.578;2022-07-23T02:07:03;3.50;;;3.13;;
3543;SDS011;1786;52.870;9.578;2022-07-23T02:09:30;4.97;;;3.30;;
3543;SDS011;1786;52.870;9.578;2022-07-23T02:11:58;5.57;;;3.57;;
3543;SDS011;1786;52.870;9.578;2022-07-23T02:14:25;13.73;;;4.10;;
3543;SDS011;1786;52.870;9.578;2022-07-23T02:16:52;5.73;;;3.53;;
3543;SDS011;1786;52.870;9.578;2022-07-23T02:19:19;4.60;;;4.07;;
3543;SDS011;1786;52.870;9.578;2022-07-23T02:21:46;3.50;;;3.30;;
3543;SDS011;1786;52.870;9.578;2022-07-23T02:24:12;4.30;;;3.63;;
3543;SDS011;1786;52.870;9.578;2022-07-23T02:27:01;7.30;;;4.40;;
3543;SDS011;1786;52.870;9.578;2022-07-23T02:29:28;8.33;;;4.00;;
3543;SDS011;1786;52.870;9.578;2022-07-23T02:31:55;6.70;;;3.90;;
3543;SDS011;1786;52.870;9.578;2022-07-23T02:34:21;11.43;;;3.67;;
3543;SDS011;1786;52.870;9.578;2022-07-23T02:36:49;8.00;;;4.10;;
3543;SDS011;1786;52.870;9.578;2022-07-23T02:39:16;5.90;;;3.70;;
3543;SDS011;1786;52.870;9.578;2022-07-23T02:41:42;4.37;;;3.83;;
3543;SDS011;1786;52.870;9.578;2022-07-23T02:44:09;3.37;;;3.13;;
3543;SDS011;1786;52.870;9.578;2022-07-23T02:46:36;5.23;;;3.37;;
3543;SDS011;1786;52.870;9.578;2022-07-23T02:49:05;7.13;;;3.73;;
3543;SDS011;1786;52.870;9.578;2022-07-23T02:51:32;5.33;;;3.80;;
3543;SDS011;1786;52.870;9.578;2022-07-23T02:54:03;10.97;;;3.97;;
3543;SDS011;1786;52.870;9.578;2022-07-23T02:56:30;3.60;;;3.37;;
3543;SDS011;1786;52.870;9.578;2022-07-23T02:58:56;4.50;;;3.77;;
3543;SDS011;1786;52.870;9.578;2022-07-23T03:01:24;5.90;;;3.60;;
3543;SDS011;1786;52.870;9.578;2022-07-23T03:03:51;8.80;;;4.80;;
3543;SDS011;1786;52.870;9.578;2022-07-23T03:06:20;5.57;;;3.90;;
3543;SDS011;1786;52.870;9.578;2022-07-23T03:08:48;3.93;;;3.63;;
3543;SDS011;1786;52.870;9.578;2022-07-23T03:11:15;7.50;;;3.70;;
3543;SDS011;1786;52.870;9.578;2022-07-23T03:13:44;5.00;;;3.60;;
3543;SDS011;1786;52.870;9.578;2022-07-23T03:16:11;3.83;;;3.40;;
3543;SDS011;1786;52.870;9.578;2022-07-23T03:18:38;6.30;;;3.93;;
3543;SDS011;1786;52.870;9.578;2022-07-23T03:21:06;6.53;;;3.70;;
3543;SDS011;1786;52.870;9.578;2022-07-23T03:23:33;3.27;;;3.17;;
3543;SDS011;1786;52.870;9.578;2022-07-23T03:26:01;8.10;;;3.90;;
3543;SDS011;1786;52.870;9.578;2022-07-23T03:28:28;4.97;;;3.70;;
3543;SDS011;1786;52.870;9.578;2022-07-23T03:30:55;3.70;;;3.40;;
3543;SDS011;1786;52.870;9.578;2022-07-23T03:33:22;8.60;;;3.93;;
3543;SDS011;1786;52.870;9.578;2022-07-23T03:35:48;12.20;;;3.97;;
3543;SDS011;1786;52.870;9.578;2022-07-23T03:38:27;3.77;;;3.43;;
3543;SDS011;1786;52.870;9.578;2022-07-23T03:40:54;7.33;;;4.27;;
3543;SDS011;1786;52.870;9.578;2022-07-23T03:43:21;8.70;;;4.30;;
3543;SDS011;1786;52.870;9.578;2022-07-23T03:45:48;4.67;;;4.10;;
3543;SDS011;1786;52.870;9.578;2022-07-23T03:48:14;7.20;;;4.23;;
3543;SDS011;1786;52.870;9.578;2022-07-23T03:50:43;4.63;;;4.20;;
3543;SDS011;1786;52.870;9.578;2022-07-23T03:53:10;9.83;;;4.97;;
3543;SDS011;1786;52.870;9.578;2022-07-23T03:55:36;10.53;;;4.90;;
3543;SDS011;1786;52.870;9.578;2022-07-23T03:58:03;7.13;;;4.53;;
3543;SDS011;1786;52.870;9.578;2022-07-23T04:00:30;4.97;;;4.00;;
3543;SDS011;1786;52.870;9.578;2022-07-23T04:02:56;5.70;;;4.40;;
3543;SDS011;1786;52.870;9.578;2022-07-23T04:05:23;5.33;;;4.50;;
3543;SDS011;1786;52.870;9.578;2022-07-23T04:07:55;10.00;;;4.87;;
3543;SDS011;1786;52.870;9.578;2022-07-23T04:10:23;4.80;;;4.00;;
3543;SDS011;1786;52.870;9.578;2022-07-23T04:12:50;5.53;;;4.17;;
3543;SDS011;1786;52.870;9.578;2022-07-23T04:15:17;5.37;;;4.60;;
3543;SDS011;1786;52.870;9.578;2022-07-23T04:17:43;7.70;;;4.80;;
3543;SDS011;1786;52.870;9.578;2022-07-23T04:20:11;7.70;;;4.80;;
3543;SDS011;1786;52.870;9.578;2022-07-23T04:22:45;7.03;;;4.50;;
3543;SDS011;1786;52.870;9.578;2022-07-23T04:25:12;6.30;;;4.30;;
3543;SDS011;1786;52.870;9.578;2022-07-23T04:27:44;5.20;;;4.77;;
3543;SDS011;1786;52.870;9.578;2022-07-23T04:30:11;13.17;;;5.33;;
3543;SDS011;1786;52.870;9.578;2022-07-23T04:32:37;8.07;;;4.70;;
3543;SDS011;1786;52.870;9.578;2022-07-23T04:35:12;4.77;;;4.40;;
3543;SDS011;1786;52.870;9.578;2022-07-23T04:37:39;5.87;;;4.57;;
3543;SDS011;1786;52.870;9.578;2022-07-23T04:40:05;6.13;;;4.33;;
3543;SDS011;1786;52.870;9.578;2022-07-23T04:42:32;6.10;;;4.17;;
3543;SDS011;1786;52.870;9.578;2022-07-23T04:44:59;6.17;;;4.37;;
3543;SDS011;1786;52.870;9.578;2022-07-23T04:47:26;5.60;;;4.73;;
3543;SDS011;1786;52.870;9.578;2022-07-23T04:49:55;5.80;;;4.33;;
3543;SDS011;1786;52.870;9.578;2022-07-23T04:52:23;5.30;;;4.73;;
3543;SDS011;1786;52.870;9.578;2022-07-23T04:54:50;14.50;;;5.10;;
3543;SDS011;1786;52.870;9.578;2022-07-23T04:57:17;10.23;;;4.70;;
3543;SDS011;1786;52.870;9.578;2022-07-23T04:59:44;8.00;;;4.63;;
3543;SDS011;1786;52.870;9.578;2022-07-23T05:02:12;8.30;;;5.90;;
3543;SDS011;1786;52.870;9.578;2022-07-23T05:04:39;6.73;;;4.70;;
3543;SDS011;1786;52.870;9.578;2022-07-23T05:07:06;5.33;;;4.60;;
3543;SDS011;1786;52.870;9.578;2022-07-23T05:09:33;4.70;;;4.30;;
3543;SDS011;1786;52.870;9.578;2022-07-23T05:12:00;6.90;;;4.70;;
3543;SDS011;1786;52.870;9.578;2022-07-23T05:14:28;5.60;;;5.10;;
3543;SDS011;1786;52.870;9.578;2022-07-23T05:16:55;7.93;;;5.03;;
3543;SDS011;1786;52.870;9.578;2022-07-23T05:19:22;6.33;;;5.63;;
3543;SDS011;1786;52.870;9.578;2022-07-23T05:21:51;12.10;;;5.77;;
3543;SDS011;1786;52.870;9.578;2022-07-23T05:24:18;6.63;;;5.70;;
3543;SDS011;1786;52.870;9.578;2022-07-23T05:26:44;5.63;;;4.93;;
3543;SDS011;1786;52.870;9.578;2022-07-23T05:29:12;5.80;;;4.77;;
3543;SDS011;1786;52.870;9.578;2022-07-23T05:31:39;11.67;;;5.60;;
3543;SDS011;1786;52.870;9.578;2022-07-23T05:34:06;6.13;;;4.70;;
3543;SDS011;1786;52.870;9.578;2022-07-23T05:36:34;8.47;;;4.73;;
3543;SDS011;1786;52.870;9.578;2022-07-23T05:39:01;4.83;;;3.93;;
3543;SDS011;1786;52.870;9.578;2022-07-23T05:41:32;3.90;;;3.60;;
3543;SDS011;1786;52.870;9.578;2022-07-23T05:44:01;5.13;;;3.23;;
3543;SDS011;1786;52.870;9.578;2022-07-23T05:46:29;4.40;;;3.33;;
3543;SDS011;1786;52.870;9.578;2022-07-23T05:49:02;4.73;;;2.93;;
3543;SDS011;1786;52.870;9.578;2022-07-23T05:51:51;3.77;;;2.70;;
3543;SDS011;1786;52.870;9.578;2022-07-23T05:54:28;2.73;;;2.23;;
3543;SDS011;1786;52.870;9.578;2022-07-23T05:56:55;4.27;;;2.23;;
3543;SDS011;1786;52.870;9.578;2022-07-23T05:59:23;5.73;;;2.67;;
3543;SDS011;1786;52.870;9.578;2022-07-23T06:01:50;2.60;;;2.27;;
3543;SDS011;1786;52.870;9.578;2022-07-23T06:04:17;2.57;;;2.27;;
3543;SDS011;1786;52.870;9.578;2022-07-23T06:06:55;3.00;;;2.63;;
3543;SDS011;1786;52.870;9.578;2022-07-23T06:09:22;2.40;;;2.20;;
3543;SDS011;1786;52.870;9.578;2022-07-23T06:11:48;5.32;;;2.10;;
3543;SDS011;1786;52.870;9.578;2022-07-23T06:14:15;4.13;;;1.95;;
3543;SDS011;1786;52.870;9.578;2022-07-23T06:16:54;1.90;;;1.70;;
3543;SDS011;1786;52.870;9.578;2022-07-23T06:19:21;2.63;;;1.90;;
3543;SDS011;1786;52.870;9.578;2022-07-23T06:21:48;1.45;;;1.35;;
3543;SDS011;1786;52.870;9.578;2022-07-23T06:24:16;2.67;;;2.00;;
3543;SDS011;1786;52.870;9.578;2022-07-23T06:26:43;7.43;;;1.95;;
3543;SDS011;1786;52.870;9.578;2022-07-23T06:29:11;2.65;;;1.90;;
3543;SDS011;1786;52.870;9.578;2022-07-23T06:31:38;4.60;;;2.10;;
3543;SDS011;1786;52.870;9.578;2022-07-23T06:34:05;4.33;;;1.80;;
3543;SDS011;1786;52.870;9.578;2022-07-23T06:36:34;3.50;;;2.27;;
3543;SDS011;1786;52.870;9.578;2022-07-23T06:39:02;3.70;;;2.00;;
3543;SDS011;1786;52.870;9.578;2022-07-23T06:41:29;4.57;;;2.13;;
3543;SDS011;1786;52.870;9.578;2022-07-23T06:43:56;6.20;;;1.80;;
3543;SDS011;1786;52.870;9.578;2022-07-23T06:46:22;3.00;;;1.80;;
3543;SDS011;1786;52.870;9.578;2022-07-23T06:48:50;1.97;;;1.83;;
3543;SDS011;1786;52.870;9.578;2022-07-23T06:51:31;5.60;;;2.00;;
3543;SDS011;1786;52.870;9.578;2022-07-23T06:54:00;8.95;;;1.40;;
3543;SDS011;1786;52.870;9.578;2022-07-23T06:56:27;3.10;;;1.23;;
3543;SDS011;1786;52.870;9.578;2022-07-23T06:58:53;6.80;;;1.63;;
3543;SDS011;1786;52.870;9.578;2022-07-23T07:01:20;7.88;;;1.73;;
3543;SDS011;1786;52.870;9.578;2022-07-23T07:03:48;5.75;;;2.45;;
3543;SDS011;1786;52.870;9.578;2022-07-23T07:06:15;4.17;;;2.03;;
3543;SDS011;1786;52.870;9.578;2022-07-23T07:08:42;5.88;;;1.75;;
3543;SDS011;1786;52.870;9.578;2022-07-23T07:11:10;3.40;;;1.75;;
3543;SDS011;1786;52.870;9.578;2022-07-23T07:13:37;8.10;;;1.58;;
3543;SDS011;1786;52.870;9.578;2022-07-23T07:16:04;10.05;;;1.65;;
3543;SDS011;1786;52.870;9.578;2022-07-23T07:18:31;5.95;;;1.80;;
3543;SDS011;1786;52.870;9.578;2022-07-23T07:20:58;4.53;;;1.77;;
3543;SDS011;1786;52.870;9.578;2022-07-23T07:23:24;4.43;;;1.77;;
3543;SDS011;1786;52.870;9.578;2022-07-23T07:25:51;7.60;;;2.00;;
3543;SDS011;1786;52.870;9.578;2022-07-23T07:28:17;12.27;;;2.28;;
3543;SDS011;1786;52.870;9.578;2022-07-23T07:30:44;2.70;;;1.38;;
3543;SDS011;1786;52.870;9.578;2022-07-23T07:33:11;7.88;;;2.30;;
3543;SDS011;1786;52.870;9.578;2022-07-23T07:35:38;4.85;;;1.48;;
3543;SDS011;1786;52.870;9.578;2022-07-23T07:38:04;5.43;;;2.03;;
3543;SDS011;1786;52.870;9.578;2022-07-23T07:40:31;3.83;;;1.20;;
3543;SDS011;1786;52.870;9.578;2022-07-23T07:42:59;4.60;;;2.03;;
3543;SDS011;1786;52.870;9.578;2022-07-23T07:45:27;5.68;;;1.77;;
3543;SDS011;1786;52.870;9.578;2022-07-23T07:47:54;1.83;;;1.00;;
3543;SDS011;1786;52.870;9.578;2022-07-23T07:50:21;6.60;;;1.50;;
3543;SDS011;1786;52.870;9.578;2022-07-23T07:52:49;1.27;;;1.07;;
3543;SDS011;1786;52.870;9.578;2022-07-23T07:55:15;1.10;;;1.00;;
3543;SDS011;1786;52.870;9.578;2022-07-23T07:57:43;2.93;;;1.40;;
3543;SDS011;1786;52.870;9.578;2022-07-23T08:00:14;5.17;;;1.70;;
3543;SDS011;1786;52.870;9.578;2022-07-23T08:02:46;4.50;;;1.93;;
3543;SDS011;1786;52.870;9.578;2022-07-23T08:05:20;5.23;;;1.40;;
3543;SDS011;1786;52.870;9.578;2022-07-23T08:07:54;3.80;;;1.40;;
3543;SDS011;1786;52.870;9.578;2022-07-23T08:10:22;2.17;;;1.40;;
3543;SDS011;1786;52.870;9.578;2022-07-23T08:12:49;2.87;;;1.20;;
3543;SDS011;1786;52.870;9.578;2022-07-23T08:15:18;2.60;;;1.60;;
3543;SDS011;1786;52.870;9.578;2022-07-23T08:17:46;3.70;;;1.57;;
3543;SDS011;1786;52.870;9.578;2022-07-23T08:20:14;2.83;;;1.40;;
3543;SDS011;1786;52.870;9.578;2022-07-23T08:25:20;1.37;;;1.20;;
3543;SDS011;1786;52.870;9.578;2022-07-23T08:27:48;2.83;;;1.37;;
3543;SDS011;1786;52.870;9.578;2022-07-23T08:30:15;6.63;;;1.70;;
3543;SDS011;1786;52.870;9.578;2022-07-23T08:32:53;2.20;;;1.13;;
3543;SDS011;1786;52.870;9.578;2022-07-23T08:35:26;7.20;;;1.30;;
3543;SDS011;1786;52.870;9.578;2022-07-23T08:37:55;3.43;;;1.20;;
3543;SDS011;1786;52.870;9.578;2022-07-23T08:40:23;8.87;;;1.33;;
3543;SDS011;1786;52.870;9.578;2022-07-23T08:42:53;4.93;;;1.10;;
3543;SDS011;1786;52.870;9.578;2022-07-23T08:45:20;8.17;;;1.50;;
3543;SDS011;1786;52.870;9.578;2022-07-23T08:47:49;1.90;;;1.30;;
3543;SDS011;1786;52.870;9.578;2022-07-23T08:50:20;3.60;;;1.07;;
3543;SDS011;1786;52.870;9.578;2022-07-23T08:52:48;1.60;;;1.20;;
3543;SDS011;1786;52.870;9.578;2022-07-23T08:55:17;5.23;;;1.23;;
3543;SDS011;1786;52.870;9.578;2022-07-23T08:57:46;2.07;;;1.23;;
3543;SDS011;1786;52.870;9.578;2022-07-23T09:00:14;3.00;;;1.13;;
3543;SDS011;1786;52.870;9.578;2022-07-23T09:02:42;2.30;;;1.30;;
3543;SDS011;1786;52.870;9.578;2022-07-23T09:05:10;2.63;;;1.00;;
3543;SDS011;1786;52.870;9.578;2022-07-23T09:13:29;6.33;;;0.90;;
3543;SDS011;1786;52.870;9.578;2022-07-23T09:16:27;3.33;;;1.00;;
3543;SDS011;1786;52.870;9.578;2022-07-23T09:19:04;5.23;;;1.10;;
3543;SDS011;1786;52.870;9.578;2022-07-23T09:21:33;1.80;;;1.10;;
3543;SDS011;1786;52.870;9.578;2022-07-23T09:24:10;2.13;;;1.00;;
3543;SDS011;1786;52.870;9.578;2022-07-23T09:26:42;1.10;;;1.10;;
3543;SDS011;1786;52.870;9.578;2022-07-23T09:34:19;0.70;;;0.70;;
3543;SDS011;1786;52.870;9.578;2022-07-23T09:36:50;0.70;;;0.70;;
3543;SDS011;1786;52.870;9.578;2022-07-23T09:39:24;2.43;;;1.00;;
3543;SDS011;1786;52.870;9.578;2022-07-23T09:41:56;1.63;;;0.90;;
3543;SDS011;1786;52.870;9.578;2022-07-23T09:44:24;2.20;;;0.90;;
3543;SDS011;1786;52.870;9.578;2022-07-23T09:46:57;0.70;;;0.70;;
3543;SDS011;1786;52.870;9.578;2022-07-23T09:49:25;1.27;;;0.90;;
3543;SDS011;1786;52.870;9.578;2022-07-23T09:51:53;1.07;;;0.90;;
3543;SDS011;1786;52.870;9.578;2022-07-23T09:54:26;3.00;;;0.90;;
3543;SDS011;1786;52.870;9.578;2022-07-23T09:56:53;1.10;;;0.93;;
3543;SDS011;1786;52.870;9.578;2022-07-23T09:59:25;2.33;;;1.00;;
3543;SDS011;1786;52.870;9.578;2022-07-23T10:01:54;2.70;;;1.57;;
3543;SDS011;1786;52.870;9.578;2022-07-23T10:04:23;2.40;;;0.90;;
3543;SDS011;1786;52.870;9.578;2022-07-23T10:07:10;10.33;;;1.40;;
3543;SDS011;1786;52.870;9.578;2022-07-23T10:09:56;1.80;;;1.00;;
3543;SDS011;1786;52.870;9.578;2022-07-23T10:12:47;3.13;;;1.40;;
3543;SDS011;1786;52.870;9.578;2022-07-23T10:15:18;2.63;;;0.80;;
3543;SDS011;1786;52.870;9.578;2022-07-23T10:17:45;1.37;;;0.90;;
3543;SDS011;1786;52.870;9.578;2022-07-23T10:20:12;1.53;;;0.80;;
3543;SDS011;1786;52.870;9.578;2022-07-23T10:22:40;0.90;;;0.90;;
3543;SDS011;1786;52.870;9.578;2022-07-23T10:25:12;2.30;;;0.97;;
3543;SDS011;1786;52.870;9.578;2022-07-23T10:31:01;3.40;;;0.93;;
3543;SDS011;1786;52.870;9.578;2022-07-23T10:34:05;1.00;;;0.90;;
3543;SDS011;1786;52.870;9.578;2022-07-23T10:36:58;5.43;;;1.03;;
3543;SDS011;1786;52.870;9.578;2022-07-23T10:39:32;2.30;;;0.80;;
3543;SDS011;1786;52.870;9.578;2022-07-23T10:44:43;1.53;;;0.80;;
3543;SDS011;1786;52.870;9.578;2022-07-23T10:47:12;2.80;;;0.80;;
3543;SDS011;1786;52.870;9.578;2022-07-23T10:50:16;2.10;;;0.90;;
3543;SDS011;1786;52.870;9.578;2022-07-23T10:58:06;2.73;;;1.07;;
3543;SDS011;1786;52.870;9.578;2022-07-23T11:00:33;3.33;;;1.10;;
3543;SDS011;1786;52.870;9.578;2022-07-23T11:03:03;0.80;;;0.80;;
3543;SDS011;1786;52.870;9.578;2022-07-23T11:05:50;5.00;;;1.27;;
3543;SDS011;1786;52.870;9.578;2022-07-23T11:08:17;3.00;;;0.97;;
3543;SDS011;1786;52.870;9.578;2022-07-23T11:10:49;1.80;;;1.00;;
3543;SDS011;1786;52.870;9.578;2022-07-23T11:24:14;1.57;;;0.90;;
3543;SDS011;1786;52.870;9.578;2022-07-23T11:26:47;1.10;;;0.90;;
3543;SDS011;1786;52.870;9.578;2022-07-23T11:32:00;1.00;;;1.00;;
3543;SDS011;1786;52.870;9.578;2022-07-23T11:37:00;7.40;;;1.00;;
3543;SDS011;1786;52.870;9.578;2022-07-23T11:39:31;1.80;;;0.70;;
3543;SDS011;1786;52.870;9.578;2022-07-23T11:41:59;1.70;;;0.97;;
3543;SDS011;1786;52.870;9.578;2022-07-23T11:44:31;2.67;;;1.00;;
3543;SDS011;1786;52.870;9.578;2022-07-23T11:47:00;0.77;;;0.77;;
3543;SDS011;1786;52.870;9.578;2022-07-23T11:49:32;0.90;;;0.90;;
3543;SDS011;1786;52.870;9.578;2022-07-23T11:52:10;1.10;;;0.80;;
3543;SDS011;1786;52.870;9.578;2022-07-23T11:54:51;2.20;;;0.80;;
3543;SDS011;1786;52.870;9.578;2022-07-23T11:57:23;0.70;;;0.70;;
3543;SDS011;1786;52.870;9.578;2022-07-23T11:59:52;0.70;;;0.70;;
3543;SDS011;1786;52.870;9.578;2022-07-23T12:02:21;0.80;;;0.80;;
3543;SDS011;1786;52.870;9.578;2022-07-23T12:04:50;1.13;;;0.70;;
3543;SDS011;1786;52.870;9.578;2022-07-23T12:07:25;0.70;;;0.70;;
3543;SDS011;1786;52.870;9.578;2022-07-23T12:09:52;0.70;;;0.70;;
3543;SDS011;1786;52.870;9.578;2022-07-23T12:12:19;1.37;;;0.60;;
3543;SDS011;1786;52.870;9.578;2022-07-23T12:14:47;0.83;;;0.77;;
3543;SDS011;1786;52.870;9.578;2022-07-23T12:17:32;0.77;;;0.77;;
3543;SDS011;1786;52.870;9.578;2022-07-23T12:20:02;2.00;;;0.80;;
3543;SDS011;1786;52.870;9.578;2022-07-23T12:22:39;1.77;;;0.67;;
3543;SDS011;1786;52.870;9.578;2022-07-23T12:25:10;0.80;;;0.80;;
3543;SDS011;1786;52.870;9.578;2022-07-23T12:27:44;1.60;;;0.80;;
3543;SDS011;1786;52.870;9.578;2022-07-23T12:30:19;2.10;;;0.90;;
3543;SDS011;1786;52.870;9.578;2022-07-23T12:32:48;1.37;;;0.77;;
3543;SDS011;1786;52.870;9.578;2022-07-23T12:35:16;0.70;;;0.70;;
3543;SDS011;1786;52.870;9.578;2022-07-23T12:37:43;0.60;;;0.60;;
3543;SDS011;1786;52.870;9.578;2022-07-23T12:40:28;2.03;;;0.70;;
3543;SDS011;1786;52.870;9.578;2022-07-23T12:45:41;0.60;;;0.60;;
3543;SDS011;1786;52.870;9.578;2022-07-23T12:48:20;0.63;;;0.63;;
3543;SDS011;1786;52.870;9.578;2022-07-23T12:53:33;0.83;;;0.83;;
3543;SDS011;1786;52.870;9.578;2022-07-23T12:56:09;0.70;;;0.63;;
3543;SDS011;1786;52.870;9.578;2022-07-23T13:06:21;2.00;;;0.70;;
3543;SDS011;1786;52.870;9.578;2022-07-23T13:08:48;1.80;;;0.93;;
3543;SDS011;1786;52.870;9.578;2022-07-23T13:11:19;1.13;;;0.70;;
3543;SDS011;1786;52.870;9.578;2022-07-23T13:13:45;0.70;;;0.70;;
3543;SDS011;1786;52.870;9.578;2022-07-23T13:16:13;0.70;;;0.60;;
3543;SDS011;1786;52.870;9.578;2022-07-23T13:18:41;1.03;;;0.70;;
3543;SDS011;1786;52.870;9.578;2022-07-23T13:21:08;0.80;;;0.63;;
3543;SDS011;1786;52.870;9.578;2022-07-23T13:23:35;2.43;;;0.60;;
3543;SDS011;1786;52.870;9.578;2022-07-23T13:26:02;5.73;;;0.70;;
3543;SDS011;1786;52.870;9.578;2022-07-23T13:28:29;0.77;;;0.77;;
3543;SDS011;1786;52.870;9.578;2022-07-23T13:30:56;0.90;;;0.70;;
3543;SDS011;1786;52.870;9.578;2022-07-23T13:33:23;0.70;;;0.70;;
3543;SDS011;1786;52.870;9.578;2022-07-23T13:35:53;1.00;;;0.90;;
3543;SDS011;1786;52.870;9.578;2022-07-23T13:38:22;1.23;;;0.93;;
3543;SDS011;1786;52.870;9.578;2022-07-23T13:40:49;2.30;;;1.03;;
3543;SDS011;1786;52.870;9.578;2022-07-23T13:43:18;2.50;;;0.80;;
3543;SDS011;1786;52.870;9.578;2022-07-23T13:45:48;1.47;;;0.80;;
3543;SDS011;1786;52.870;9.578;2022-07-23T13:48:16;0.80;;;0.70;;
3543;SDS011;1786;52.870;9.578;2022-07-23T13:50:43;1.67;;;0.80;;
3543;SDS011;1786;52.870;9.578;2022-07-23T13:53:12;0.60;;;0.60;;
3543;SDS011;1786;52.870;9.578;2022-07-23T13:55:43;2.93;;;0.80;;
3543;SDS011;1786;52.870;9.578;2022-07-23T13:58:15;1.87;;;0.70;;
3543;SDS011;1786;52.870;9.578;2022-07-23T14:00:44;2.50;;;0.77;;
3543;SDS011;1786;52.870;9.578;2022-07-23T14:03:18;0.87;;;0.87;;
3543;SDS011;1786;52.870;9.578;2022-07-23T14:05:50;0.93;;;0.80;;
3543;SDS011;1786;52.870;9.578;2022-07-23T14:08:21;2.80;;;0.77;;
3543;SDS011;1786;52.870;9.578;2022-07-23T14:10:48;0.97;;;0.83;;
3543;SDS011;1786;52.870;9.578;2022-07-23T14:13:15;1.50;;;0.80;;
3543;SDS011;1786;52.870;9.578;2022-07-23T14:15:42;0.90;;;0.90;;
3543;SDS011;1786;52.870;9.578;2022-07-23T14:18:12;3.90;;;0.80;;
3543;SDS011;1786;52.870;9.578;2022-07-23T14:20:39;1.70;;;1.00;;
3543;SDS011;1786;52.870;9.578;2022-07-23T14:23:06;0.67;;;0.67;;
3543;SDS011;1786;52.870;9.578;2022-07-23T14:25:32;0.90;;;0.73;;
3543;SDS011;1786;52.870;9.578;2022-07-23T14:27:59;1.20;;;1.10;;
3543;SDS011;1786;52.870;9.578;2022-07-23T14:30:26;0.70;;;0.70;;
3543;SDS011;1786;52.870;9.578;2022-07-23T14:33:00;1.13;;;0.90;;
3543;SDS011;1786;52.870;9.578;2022-07-23T14:35:26;0.80;;;0.80;;
3543;SDS011;1786;52.870;9.578;2022-07-23T14:37:53;2.73;;;0.80;;
3543;SDS011;1786;52.870;9.578;2022-07-23T14:40:20;5.50;;;0.93;;
3543;SDS011;1786;52.870;9.578;2022-07-23T14:42:49;0.80;;;0.80;;
3543;SDS011;1786;52.870;9.578;2022-07-23T14:45:15;4.37;;;1.00;;
3543;SDS011;1786;52.870;9.578;2022-07-23T14:48:02;2.10;;;0.90;;
3543;SDS011;1786;52.870;9.578;2022-07-23T14:50:29;7.30;;;0.80;;
3543;SDS011;1786;52.870;9.578;2022-07-23T14:52:56;2.20;;;0.80;;
3543;SDS011;1786;52.870;9.578;2022-07-23T14:55:22;1.17;;;0.70;;
3543;SDS011;1786;52.870;9.578;2022-07-23T14:57:50;0.90;;;0.67;;
3543;SDS011;1786;52.870;9.578;2022-07-23T15:00:17;2.63;;;0.80;;
3543;SDS011;1786;52.870;9.578;2022-07-23T15:02:50;1.33;;;0.70;;
3543;SDS011;1786;52.870;9.578;2022-07-23T15:05:20;0.70;;;0.70;;
3543;SDS011;1786;52.870;9.578;2022-07-23T15:07:50;2.77;;;1.00;;
3543;SDS011;1786;52.870;9.578;2022-07-23T15:10:18;3.40;;;1.20;;
3543;SDS011;1786;52.870;9.578;2022-07-23T15:12:48;2.20;;;1.00;;
3543;SDS011;1786;52.870;9.578;2022-07-23T15:15:15;1.20;;;1.20;;
3543;SDS011;1786;52.870;9.578;2022-07-23T15:17:43;1.77;;;1.77;;
3543;SDS011;1786;52.870;9.578;2022-07-23T15:20:10;3.83;;;1.10;;
3543;SDS011;1786;52.870;9.578;2022-07-23T15:22:40;2.10;;;1.83;;
3543;SDS011;1786;52.870;9.578;2022-07-23T15:25:07;1.00;;;1.00;;
3543;SDS011;1786;52.870;9.578;2022-07-23T15:27:38;2.63;;;1.20;;
3543;SDS011;1786;52.870;9.578;2022-07-23T15:30:06;2.60;;;2.00;;
3543;SDS011;1786;52.870;9.578;2022-07-23T15:32:34;2.53;;;0.80;;
3543;SDS011;1786;52.870;9.578;2022-07-23T15:35:00;1.27;;;1.17;;
3543;SDS011;1786;52.870;9.578;2022-07-23T15:37:28;4.20;;;1.33;;
3543;SDS011;1786;52.870;9.578;2022-07-23T15:39:56;5.23;;;1.07;;
3543;SDS011;1786;52.870;9.578;2022-07-23T15:42:22;1.43;;;0.97;;
3543;SDS011;1786;52.870;9.578;2022-07-23T15:44:49;7.43;;;0.70;;
3543;SDS011;1786;52.870;9.578;2022-07-23T15:47:16;9.90;;;0.93;;
3543;SDS011;1786;52.870;9.578;2022-07-23T15:49:44;2.60;;;0.80;;
3543;SDS011;1786;52.870;9.578;2022-07-23T15:52:12;2.30;;;0.70;;
3543;SDS011;1786;52.870;9.578;2022-07-23T15:54:40;1.60;;;1.00;;
3543;SDS011;1786;52.870;9.578;2022-07-23T15:57:07;1.23;;;0.67;;
3543;SDS011;1786;52.870;9.578;2022-07-23T15:59:34;0.87;;;0.87;;
3543;SDS011;1786;52.870;9.578;2022-07-23T16:02:01;0.93;;;0.73;;
3543;SDS011;1786;52.870;9.578;2022-07-23T16:04:27;0.70;;;0.70;;
3543;SDS011;1786;52.870;9.578;2022-07-23T16:06:54;0.80;;;0.80;;
3543;SDS011;1786;52.870;9.578;2022-07-23T16:09:22;2.77;;;0.90;;
3543;SDS011;1786;52.870;9.578;2022-07-23T16:11:49;2.10;;;0.70;;
3543;SDS011;1786;52.870;9.578;2022-07-23T16:14:16;0.97;;;0.97;;
3543;SDS011;1786;52.870;9.578;2022-07-23T16:16:43;1.57;;;0.90;;
3543;SDS011;1786;52.870;9.578;2022-07-23T16:19:09;1.57;;;0.90;;
3543;SDS011;1786;52.870;9.578;2022-07-23T16:21:36;1.40;;;1.40;;